Time;durP1;ratioP1;P1;durP2;ratioP2;P2;SDS_P1;SDS_P2;PMS_P1;PMS_P2;Temp;Humidity;BMP_temperature;BMP_pressure;BME280_temperature;BME280_humidity;BME280_pressure;Samples;Min_cycle;Max_cycle;Signal;HPM_P1;HPM_P2
2022/02/28 00:04:31;;;;;;;5.38;3.30;;;5.90;50.40;;;;;;10053278;28;20013;-61
2022/02/28 00:09:23;;;;;;;5.35;2.65;;;5.70;50.20;;;;;;10054779;28;20046;-62
2022/02/28 00:14:14;;;;;;;5.68;2.45;;;5.50;51.90;;;;;;10041526;28;20111;-63
2022/02/28 00:19:05;;;;;;;6.50;2.92;;;5.30;52.00;;;;;;10053844;28;20026;-62
2022/02/28 00:23:56;;;;;;;5.75;3.30;;;5.30;52.40;;;;;;10053259;28;20063;-62
2022/02/28 00:28:46;;;;;;;5.80;2.75;;;5.30;52.00;;;;;;10050108;28;20084;-61
2022/02/28 00:33:37;;;;;;;7.80;3.03;;;5.20;52.20;;;;;;10051146;28;20442;-61
2022/02/28 00:38:28;;;;;;;6.57;3.10;;;5.20;52.00;;;;;;10051017;28;20029;-62
2022/02/28 00:43:19;;;;;;;8.63;3.10;;;5.10;52.10;;;;;;10050593;28;20030;-61
2022/02/28 00:48:10;;;;;;;7.78;2.80;;;5.00;52.30;;;;;;10051227;28;20049;-63
2022/02/28 00:53:01;;;;;;;7.25;3.13;;;5.00;52.60;;;;;;10050027;28;20433;-61
2022/02/28 00:57:51;;;;;;;7.00;4.18;;;4.90;52.50;;;;;;10053124;28;20025;-62
2022/02/28 01:02:42;;;;;;;5.28;2.78;;;4.60;52.80;;;;;;10048351;28;20080;-61
2022/02/28 01:07:33;;;;;;;3.88;2.50;;;4.40;53.20;;;;;;10051775;28;20053;-61
2022/02/28 01:12:24;;;;;;;7.28;3.30;;;4.50;54.70;;;;;;10050788;28;20686;-60
2022/02/28 01:17:16;;;;;;;7.30;2.70;;;4.60;53.80;;;;;;10043263;28;20037;-61
2022/02/28 01:22:11;;;;;;;10.82;3.53;;;4.50;53.90;;;;;;10051207;28;20395;-61
2022/02/28 01:27:02;;;;;;;4.57;2.88;;;4.50;53.70;;;;;;10046692;28;20139;-62
2022/02/28 01:31:52;;;;;;;5.05;3.17;;;4.40;54.90;;;;;;10050296;28;20068;-60
2022/02/28 01:36:44;;;;;;;5.93;2.83;;;4.10;55.90;;;;;;10050633;28;20025;-62
2022/02/28 01:41:35;;;;;;;5.07;3.30;;;4.10;56.00;;;;;;10049719;28;20029;-62
2022/02/28 01:46:25;;;;;;;6.65;3.40;;;4.20;56.30;;;;;;10048835;28;20326;-61
2022/02/28 01:51:16;;;;;;;4.13;2.72;;;3.90;55.90;;;;;;10046192;28;20389;-61
2022/02/28 01:56:07;;;;;;;5.80;2.58;;;3.70;57.40;;;;;;10045388;28;20034;-61
2022/02/28 02:00:57;;;;;;;5.00;2.72;;;3.90;57.80;;;;;;10039031;28;20026;-60
2022/02/28 02:05:48;;;;;;;3.92;2.78;;;4.00;57.00;;;;;;10045127;28;20030;-61
2022/02/28 02:10:39;;;;;;;5.93;3.33;;;4.00;57.50;;;;;;10045988;28;20030;-60
2022/02/28 02:15:30;;;;;;;5.07;2.90;;;3.90;58.00;;;;;;10045700;28;20063;-62
2022/02/28 02:20:21;;;;;;;4.13;3.00;;;3.80;57.50;;;;;;10049028;28;20080;-60
2022/02/28 02:25:12;;;;;;;6.28;3.53;;;3.70;57.50;;;;;;10038816;28;20570;-60
2022/02/28 02:30:03;;;;;;;7.50;3.97;;;3.50;57.80;;;;;;10043807;28;20050;-61
2022/02/28 02:34:53;;;;;;;7.22;3.22;;;3.40;58.10;;;;;;10043016;28;20038;-61
2022/02/28 02:39:44;;;;;;;9.40;3.95;;;3.50;58.60;;;;;;10044573;28;20068;-62
2022/02/28 02:44:36;;;;;;;3.58;2.53;;;3.50;59.40;;;;;;10045019;28;20029;-61
2022/02/28 02:49:28;;;;;;;7.30;2.63;;;3.50;59.20;;;;;;10047630;28;20045;-61
2022/02/28 02:54:19;;;;;;;4.45;2.63;;;3.50;60.30;;;;;;10044363;28;20033;-61
2022/02/28 02:59:09;;;;;;;3.80;2.35;;;3.50;60.70;;;;;;10044993;28;20130;-64
2022/02/28 03:04:00;;;;;;;4.32;2.63;;;3.50;59.60;;;;;;10045625;28;20030;-61
2022/02/28 03:08:51;;;;;;;4.13;2.00;;;3.50;60.50;;;;;;10045032;28;20044;-61
2022/02/28 03:13:41;;;;;;;5.68;2.70;;;3.50;61.30;;;;;;10043919;28;20045;-62
2022/02/28 03:18:32;;;;;;;5.15;2.35;;;3.40;61.60;;;;;;10044553;28;20107;-62
2022/02/28 03:23:24;;;;;;;5.78;2.72;;;3.40;62.10;;;;;;10040422;28;20029;-63
2022/02/28 03:28:15;;;;;;;3.83;2.22;;;3.40;62.00;;;;;;10043145;28;20041;-64
2022/02/28 03:33:06;;;;;;;4.95;2.65;;;3.40;61.20;;;;;;10044227;28;20030;-62
2022/02/28 03:37:56;;;;;;;5.28;2.22;;;3.40;61.30;;;;;;10042614;28;20116;-61
2022/02/28 03:42:47;;;;;;;5.25;2.33;;;3.50;61.90;;;;;;10043453;28;20028;-61
2022/02/28 03:47:38;;;;;;;7.15;2.50;;;3.30;62.40;;;;;;10043245;28;20417;-62
2022/02/28 03:52:28;;;;;;;7.45;2.97;;;3.30;62.60;;;;;;10040610;28;20026;-62
2022/02/28 03:57:19;;;;;;;5.22;2.13;;;3.20;63.70;;;;;;10061876;28;20030;-62
2022/02/28 04:02:10;;;;;;;3.58;2.00;;;3.10;64.40;;;;;;10051987;28;20029;-60
2022/02/28 04:07:01;;;;;;;3.40;2.00;;;3.00;64.60;;;;;;10050432;28;20029;-60
2022/02/28 04:11:51;;;;;;;6.55;2.20;;;3.10;63.90;;;;;;10045361;28;20048;-61
2022/02/28 04:16:42;;;;;;;3.20;2.30;;;3.00;65.10;;;;;;10044325;28;20542;-61
2022/02/28 04:21:33;;;;;;;7.82;3.08;;;2.90;64.10;;;;;;10050503;28;20060;-61
2022/02/28 04:26:24;;;;;;;5.88;2.60;;;2.90;64.30;;;;;;10050436;28;20022;-61
2022/02/28 04:31:15;;;;;;;4.15;2.40;;;2.80;64.40;;;;;;10050633;28;20038;-61
2022/02/28 04:36:06;;;;;;;5.30;2.40;;;2.80;64.90;;;;;;10048430;28;20030;-60
2022/02/28 04:40:57;;;;;;;4.50;2.55;;;2.70;65.90;;;;;;10050511;28;20033;-63
2022/02/28 04:45:47;;;;;;;3.97;2.33;;;2.70;65.80;;;;;;10052909;28;20037;-61
2022/02/28 04:50:38;;;;;;;4.50;2.55;;;2.70;66.00;;;;;;10048199;28;20037;-61
2022/02/28 04:55:29;;;;;;;3.30;2.47;;;2.60;66.60;;;;;;10051438;28;20092;-61
2022/02/28 05:00:20;;;;;;;5.05;2.58;;;2.50;68.10;;;;;;10051239;28;20057;-61
2022/02/28 05:05:10;;;;;;;4.18;2.13;;;2.60;68.30;;;;;;10049299;28;20034;-60
2022/02/28 05:10:01;;;;;;;7.10;2.80;;;2.60;67.60;;;;;;10041460;28;20033;-60
2022/02/28 05:14:52;;;;;;;3.90;2.50;;;2.60;67.00;;;;;;10049267;28;20664;-61
2022/02/28 05:19:43;;;;;;;4.43;2.15;;;2.60;68.20;;;;;;10050290;28;20140;-63
2022/02/28 05:24:34;;;;;;;3.63;2.20;;;2.60;68.80;;;;;;10050947;28;20077;-61
2022/02/28 05:29:26;;;;;;;7.55;3.22;;;2.60;67.60;;;;;;10048079;28;20128;-61
2022/02/28 05:34:16;;;;;;;6.13;2.13;;;2.60;67.30;;;;;;10049753;28;20041;-61
2022/02/28 05:39:07;;;;;;;5.03;2.00;;;2.70;68.40;;;;;;10045403;28;20463;-62
2022/02/28 05:43:58;;;;;;;4.30;2.10;;;2.50;69.00;;;;;;10041453;28;20025;-61
2022/02/28 05:48:48;;;;;;;4.68;3.20;;;2.40;69.50;;;;;;10043894;28;20477;-61
2022/02/28 05:53:39;;;;;;;5.20;2.08;;;2.50;68.80;;;;;;10047556;28;20030;-61
2022/02/28 05:58:30;;;;;;;4.57;2.65;;;2.40;69.50;;;;;;10046265;28;20561;-60
2022/02/28 06:03:21;;;;;;;6.78;2.55;;;2.20;68.60;;;;;;10049108;28;20120;-63
2022/02/28 06:08:11;;;;;;;4.13;2.47;;;2.20;69.30;;;;;;10043765;28;20039;-61
2022/02/28 06:13:02;;;;;;;6.30;2.85;;;2.30;69.00;;;;;;10047601;28;21088;-60
2022/02/28 06:17:53;;;;;;;7.25;3.10;;;2.40;69.20;;;;;;10045548;28;20069;-60
2022/02/28 06:22:44;;;;;;;6.32;3.47;;;2.40;70.20;;;;;;10043092;28;20491;-61
2022/02/28 06:27:34;;;;;;;4.28;2.53;;;2.40;69.60;;;;;;10044383;28;20038;-62
2022/02/28 06:32:25;;;;;;;4.57;2.47;;;2.30;71.70;;;;;;10046258;28;20040;-61
2022/02/28 06:37:16;;;;;;;8.18;3.05;;;2.30;71.70;;;;;;10048025;28;20056;-61
2022/02/28 06:42:07;;;;;;;4.82;2.67;;;2.30;71.00;;;;;;10046688;28;20063;-62
2022/02/28 06:46:58;;;;;;;4.65;3.28;;;2.30;70.60;;;;;;10040567;28;20539;-62
2022/02/28 06:51:48;;;;;;;7.55;3.50;;;2.30;70.60;;;;;;10045644;28;20549;-62
2022/02/28 06:56:39;;;;;;;8.38;3.17;;;2.40;70.40;;;;;;10045072;28;20017;-61
2022/02/28 07:01:32;;;;;;;8.23;2.90;;;2.40;70.30;;;;;;10037679;28;20116;-60
2022/02/28 07:06:24;;;;;;;4.53;2.95;;;2.50;70.40;;;;;;10044893;28;20708;-61
2022/02/28 07:11:15;;;;;;;7.95;3.28;;;2.50;70.70;;;;;;10041751;28;20131;-61
2022/02/28 07:16:06;;;;;;;5.75;2.28;;;2.60;71.20;;;;;;10032253;28;20143;-62
2022/02/28 07:20:57;;;;;;;4.88;2.67;;;2.60;71.20;;;;;;10045421;28;20037;-61
2022/02/28 07:25:47;;;;;;;7.38;3.92;;;3.10;71.30;;;;;;10044458;28;20030;-62
2022/02/28 07:30:38;;;;;;;6.00;3.08;;;2.60;71.10;;;;;;10041836;28;20065;-62
2022/02/28 07:35:29;;;;;;;6.10;2.88;;;2.60;71.10;;;;;;10048107;28;20044;-61
2022/02/28 07:40:20;;;;;;;5.28;2.70;;;2.70;72.00;;;;;;10052769;28;20522;-64
2022/02/28 07:45:11;;;;;;;5.90;2.85;;;2.60;71.90;;;;;;10052271;28;20363;-62
2022/02/28 07:50:03;;;;;;;9.05;3.50;;;2.70;71.90;;;;;;10052050;28;20041;-61
2022/02/28 07:54:54;;;;;;;8.05;2.90;;;2.80;72.30;;;;;;10050671;28;20026;-61
2022/02/28 07:59:44;;;;;;;6.97;3.38;;;2.90;72.00;;;;;;10051932;28;20036;-63
2022/02/28 08:04:35;;;;;;;6.95;3.38;;;3.00;72.10;;;;;;10050777;28;20037;-61
2022/02/28 08:09:26;;;;;;;4.68;2.95;;;3.20;72.10;;;;;;10050599;28;20030;-59
2022/02/28 08:14:17;;;;;;;6.55;3.83;;;3.10;71.80;;;;;;10050009;28;20064;-60
2022/02/28 08:19:08;;;;;;;7.72;3.63;;;3.20;72.00;;;;;;10047845;28;20030;-61
2022/02/28 08:23:58;;;;;;;7.25;4.03;;;3.20;72.00;;;;;;10050957;28;20037;-60
2022/02/28 08:28:49;;;;;;;6.25;3.35;;;3.30;71.90;;;;;;10051648;28;20029;-61
2022/02/28 08:33:40;;;;;;;6.30;3.13;;;3.40;72.00;;;;;;10049961;28;20503;-62
2022/02/28 08:38:30;;;;;;;8.75;3.92;;;3.40;72.60;;;;;;10048786;28;20029;-62
2022/02/28 08:43:21;;;;;;;6.55;3.75;;;3.50;73.00;;;;;;10044864;28;20116;-62
2022/02/28 08:48:12;;;;;;;7.53;4.03;;;3.70;72.60;;;;;;10047279;28;20037;-63
2022/02/28 08:53:03;;;;;;;7.20;3.70;;;3.90;72.10;;;;;;10050296;28;20099;-62
2022/02/28 08:57:53;;;;;;;7.53;4.50;;;4.10;72.00;;;;;;10063087;28;20030;-61
2022/02/28 09:02:44;;;;;;;10.43;4.82;;;4.10;72.00;;;;;;10050827;28;20028;-61
2022/02/28 09:07:36;;;;;;;8.68;4.35;;;4.20;72.10;;;;;;10045967;28;20233;-61
2022/02/28 09:12:27;;;;;;;6.57;4.43;;;4.40;71.90;;;;;;10047036;28;20511;-62
2022/02/28 09:17:18;;;;;;;7.60;3.97;;;4.40;71.80;;;;;;10046480;28;20029;-62
2022/02/28 09:22:09;;;;;;;7.05;3.70;;;4.50;72.00;;;;;;10047386;28;20108;-63
2022/02/28 09:27:04;;;;;;;10.63;4.78;;;4.70;71.80;;;;;;10047668;28;20018;-61
2022/02/28 09:31:54;;;;;;;8.65;4.22;;;4.80;71.60;;;;;;10042670;28;20504;-62
2022/02/28 09:36:47;;;;;;;8.43;4.88;;;5.00;71.50;;;;;;10047445;28;20104;-61
2022/02/28 09:41:38;;;;;;;7.22;4.22;;;5.10;71.40;;;;;;10047896;28;20416;-62
2022/02/28 09:46:29;;;;;;;7.78;4.45;;;5.20;71.30;;;;;;10041939;28;20030;-62
2022/02/28 09:51:20;;;;;;;8.85;4.05;;;5.20;71.20;;;;;;10041223;28;20484;-61
2022/02/28 09:56:11;;;;;;;8.32;4.30;;;5.30;71.30;;;;;;10046428;28;20426;-61
2022/02/28 10:01:03;;;;;;;7.97;4.43;;;5.50;71.00;;;;;;10046198;28;20496;-62
2022/02/28 10:05:59;;;;;;;10.48;5.32;;;5.60;70.90;;;;;;10045386;28;20022;-61
2022/02/28 10:10:49;;;;;;;10.18;4.57;;;5.60;70.90;;;;;;10044289;28;20056;-62
2022/02/28 10:15:44;;;;;;;12.23;5.07;;;6.20;70.90;;;;;;10047482;28;20048;-63
2022/02/28 10:20:37;;;;;;;11.43;5.13;;;5.90;70.40;;;;;;10046244;28;20044;-64
2022/02/28 10:25:32;;;;;;;10.30;4.47;;;6.10;70.20;;;;;;10047844;28;20115;-61
2022/02/28 10:30:27;;;;;;;8.07;4.85;;;6.20;70.10;;;;;;10045798;28;20136;-62
2022/02/28 10:40:32;;;;;;;11.02;4.82;;;6.20;70.00;;;;;;10039621;28;20076;-62
2022/02/28 10:45:25;;;;;;;10.10;4.80;;;6.30;69.90;;;;;;10046767;28;20039;-61
2022/02/28 10:50:39;;;;;;;5.05;3.47;;;6.40;69.80;;;;;;10044297;28;20455;-60
2022/02/28 10:55:31;;;;;;;8.63;5.07;;;6.50;69.30;;;;;;10044420;28;20208;-61
2022/02/28 11:00:22;;;;;;;8.77;4.55;;;6.60;68.50;;;;;;10048060;28;21105;-61
2022/02/28 11:05:21;;;;;;;10.35;4.38;;;6.60;69.20;;;;;;10039686;28;20037;-62
2022/02/28 11:10:15;;;;;;;10.07;5.35;;;6.60;69.00;;;;;;10045392;28;20037;-64
2022/02/28 11:15:13;;;;;;;8.68;4.30;;;6.70;69.10;;;;;;10053091;28;20049;-61
2022/02/28 11:20:08;;;;;;;11.50;5.10;;;6.90;68.90;;;;;;10052513;28;20026;-63
2022/02/28 11:24:59;;;;;;;9.63;4.68;;;7.10;68.50;;;;;;10050532;28;20403;-62
2022/02/28 11:29:54;;;;;;;10.25;4.65;;;7.30;68.40;;;;;;10047282;28;20037;-63
2022/02/28 11:34:50;;;;;;;9.10;4.43;;;7.30;68.20;;;;;;10048689;28;20029;-62
2022/02/28 11:39:41;;;;;;;;;;;7.30;67.90;;;;;;10052366;28;20120;-63
2022/02/28 11:44:55;;;;;;;6.10;4.18;;;7.30;67.60;;;;;;10051014;28;19920;-63
2022/02/28 11:49:47;;;;;;;6.95;3.95;;;7.40;67.60;;;;;;10044805;28;20085;-63
2022/02/28 11:54:42;;;;;;;9.38;4.35;;;7.50;67.40;;;;;;10050573;28;20104;-62
2022/02/28 11:59:38;;;;;;;7.55;4.07;;;7.80;67.50;;;;;;10052977;28;20249;-63
2022/02/28 12:04:41;;;;;;;6.78;4.15;;;7.80;66.40;;;;;;10047203;28;20073;-63
2022/02/28 12:09:32;;;;;;;9.60;4.13;;;7.70;66.30;;;;;;10051891;28;20091;-65
2022/02/28 12:14:23;;;;;;;4.95;3.22;;;7.80;66.30;;;;;;10023679;23;20149;-68
2022/02/28 12:19:14;;;;;;;8.52;3.72;;;8.20;65.90;;;;;;10012443;28;20029;-66
2022/02/28 12:24:05;;;;;;;5.18;3.28;;;8.20;65.30;;;;;;10000923;28;20501;-65
2022/02/28 12:28:56;;;;;;;6.22;3.63;;;8.30;65.00;;;;;;10002426;28;20106;-68
2022/02/28 12:33:46;;;;;;;9.90;5.03;;;8.30;63.90;;;;;;10024919;28;20199;-68
2022/02/28 12:38:48;;;;;;;5.80;3.58;;;8.50;64.10;;;;;;10010199;28;20120;-65
2022/02/28 12:43:40;;;;;;;6.63;3.72;;;8.70;63.50;;;;;;10006419;28;20050;-67
2022/02/28 12:48:31;;;;;;;5.72;3.80;;;9.40;63.00;;;;;;10001293;28;20029;-69
2022/02/28 12:53:25;;;;;;;7.65;3.72;;;9.30;62.10;;;;;;10006528;28;20022;-69
2022/02/28 12:58:20;;;;;;;7.93;3.40;;;9.60;62.70;;;;;;10003379;28;20036;-71
2022/02/28 13:03:11;;;;;;;4.78;2.97;;;10.00;62.10;;;;;;10007843;28;20045;-70
2022/02/28 13:08:02;;;;;;;4.35;3.42;;;10.20;61.20;;;;;;10008549;28;20022;-66
2022/02/28 13:12:53;;;;;;;5.68;3.38;;;10.50;61.50;;;;;;9969677;28;1177279;-72
2022/02/28 13:17:46;;;;;;;8.32;4.70;;;10.80;62.10;;;;;;10010453;28;20180;-69
2022/02/28 13:22:37;;;;;;;8.43;5.30;;;11.10;62.70;;;;;;10011216;28;20026;-68
2022/02/28 13:27:27;;;;;;;7.03;4.47;;;11.50;62.90;;;;;;10010034;28;20030;-68
2022/02/28 13:32:19;;;;;;;12.00;5.40;;;11.70;63.30;;;;;;10015885;28;20038;-64
2022/02/28 13:37:22;;;;;;;11.40;6.15;;;12.20;63.20;;;;;;10022103;28;20026;-63
2022/02/28 13:42:15;;;;;;;8.50;5.28;;;12.50;62.60;;;;;;10021452;28;20025;-64
2022/02/28 13:47:20;;;;;;;5.50;4.90;;;13.00;63.80;;;;;;10006518;28;20026;-68
2022/02/28 13:52:23;;;;;;;7.25;4.80;;;13.70;62.90;;;;;;10012776;28;20068;-68
2022/02/28 13:57:15;;;;;;;5.30;4.32;;;14.20;63.10;;;;;;10018454;28;20076;-67
2022/02/28 14:02:09;;;;;;;8.48;4.85;;;14.60;61.70;;;;;;10010269;28;20021;-65
2022/02/28 14:07:01;;;;;;;7.57;4.72;;;15.40;60.50;;;;;;10020787;28;20129;-72
2022/02/28 14:11:52;;;;;;;5.65;4.18;;;15.70;58.50;;;;;;10023924;28;20095;-63
2022/02/28 14:16:43;;;;;;;5.63;3.88;;;16.00;56.30;;;;;;9994868;28;20052;-65
2022/02/28 14:21:37;;;;;;;5.10;3.78;;;16.30;54.60;;;;;;10016068;28;20113;-64
2022/02/28 14:26:32;;;;;;;6.53;3.83;;;16.90;52.20;;;;;;10012240;28;20030;-65
2022/02/28 14:31:23;;;;;;;5.53;3.80;;;17.90;49.80;;;;;;10017885;28;20042;-65
2022/02/28 14:36:14;;;;;;;6.53;3.33;;;18.70;47.40;;;;;;10018386;28;20271;-65
2022/02/28 14:41:08;;;;;;;5.28;3.78;;;20.40;44.40;;;;;;10018741;28;20026;-67
2022/02/28 14:45:58;;;;;;;;;;;20.70;42.30;;;;;;10020307;28;20452;-68
2022/02/28 14:50:50;;;;;;;4.38;3.40;;;22.20;36.50;;;;;;10021481;28;19917;-68
2022/02/28 14:55:40;;;;;;;11.80;4.72;;;22.50;38.90;;;;;;10021370;28;20021;-73
2022/02/28 15:00:31;;;;;;;13.95;5.20;;;23.60;37.10;;;;;;10016586;28;20141;-64
2022/02/28 15:05:22;;;;;;;5.60;3.80;;;24.60;35.50;;;;;;10017567;28;20093;-68
2022/02/28 15:10:14;;;;;;;4.68;3.65;;;24.30;34.30;;;;;;10023960;28;20282;-68
2022/02/28 15:15:05;;;;;;;4.90;3.13;;;24.10;34.10;;;;;;10005222;28;20042;-66
2022/02/28 15:19:56;;;;;;;7.72;4.65;;;24.80;32.60;;;;;;10002541;28;20069;-67
2022/02/28 15:24:47;;;;;;;6.93;4.47;;;24.00;33.50;;;;;;10005114;28;20049;-64
2022/02/28 15:29:37;;;;;;;7.05;4.40;;;23.30;32.50;;;;;;10005739;28;20117;-67
2022/02/28 15:34:28;;;;;;;3.92;3.20;;;23.40;31.80;;;;;;10004271;28;20026;-66
2022/02/28 15:39:19;;;;;;;5.43;3.20;;;23.10;31.50;;;;;;10006292;28;20032;-68
2022/02/28 15:44:09;;;;;;;6.70;4.13;;;23.40;31.30;;;;;;10003988;28;20430;-68
2022/02/28 15:49:00;;;;;;;4.43;3.03;;;23.00;30.90;;;;;;10007114;28;20061;-68
2022/02/28 15:53:51;;;;;;;6.28;3.67;;;22.80;31.20;;;;;;10007464;28;20323;-69
2022/02/28 15:58:42;;;;;;;6.13;3.60;;;22.50;31.40;;;;;;10010632;28;20042;-68
2022/02/28 16:03:33;;;;;;;5.60;4.20;;;22.10;31.40;;;;;;10009350;28;20109;-65
2022/02/28 16:08:23;;;;;;;6.18;3.72;;;21.20;32.80;;;;;;10014700;28;20091;-67
2022/02/28 16:13:14;;;;;;;5.75;4.18;;;21.30;32.00;;;;;;10018927;28;20042;-73
2022/02/28 16:18:05;;;;;;;4.28;3.10;;;21.40;31.90;;;;;;10023663;28;20033;-77
2022/02/28 16:22:56;;;;;;;7.60;4.38;;;20.80;32.20;;;;;;10005714;28;20033;-64
2022/02/28 16:27:47;;;;;;;7.15;4.85;;;19.80;32.70;;;;;;10017591;28;20386;-66
2022/02/28 16:32:39;;;;;;;6.78;3.97;;;16.70;34.90;;;;;;10017768;28;20045;-66
2022/02/28 16:37:30;;;;;;;9.63;5.15;;;14.30;37.20;;;;;;10013103;28;20056;-72
2022/02/28 16:42:20;;;;;;;7.30;4.53;;;13.10;38.00;;;;;;10024370;28;20057;-70
2022/02/28 16:47:11;;;;;;;7.85;4.18;;;12.50;38.00;;;;;;10018660;28;20189;-69
2022/02/28 16:52:02;;;;;;;9.25;5.10;;;12.10;38.30;;;;;;10023035;28;20048;-70
2022/02/28 16:56:53;;;;;;;9.77;4.30;;;11.80;38.10;;;;;;10005039;28;20281;-69
2022/02/28 17:01:44;;;;;;;6.55;4.03;;;11.60;38.40;;;;;;10020856;28;20448;-70
2022/02/28 17:06:34;;;;;;;6.47;4.07;;;11.40;38.80;;;;;;10008634;28;20022;-67
2022/02/28 17:11:25;;;;;;;7.30;4.45;;;11.20;38.90;;;;;;10018218;28;20046;-65
2022/02/28 17:16:16;;;;;;;8.23;4.05;;;11.10;39.10;;;;;;10008830;28;20028;-65
2022/02/28 17:21:06;;;;;;;9.55;4.85;;;11.00;39.50;;;;;;10011307;28;20500;-67
2022/02/28 17:25:58;;;;;;;9.20;4.53;;;10.80;39.80;;;;;;10010051;28;20026;-66
2022/02/28 17:30:48;;;;;;;9.20;4.78;;;10.70;40.00;;;;;;10005437;28;20038;-66
2022/02/28 17:35:39;;;;;;;7.80;4.57;;;10.60;39.70;;;;;;10006099;28;20497;-68
2022/02/28 17:40:30;;;;;;;7.53;4.30;;;10.50;39.90;;;;;;10008148;28;20403;-68
2022/02/28 17:45:21;;;;;;;8.18;5.13;;;10.50;40.40;;;;;;10005682;28;20435;-68
2022/02/28 17:50:12;;;;;;;7.97;4.25;;;10.40;40.20;;;;;;10009718;28;20042;-68
2022/02/28 17:55:10;;;;;;;11.43;4.85;;;10.30;40.50;;;;;;10011476;28;20037;-68
2022/02/28 18:00:02;;;;;;;9.43;4.82;;;10.30;41.20;;;;;;10005748;28;20030;-66
2022/02/28 18:04:53;;;;;;;8.65;4.47;;;10.20;41.00;;;;;;10007852;28;20559;-66
2022/02/28 18:09:44;;;;;;;12.07;5.18;;;10.10;41.30;;;;;;10010076;28;20128;-66
2022/02/28 18:14:34;;;;;;;7.88;4.68;;;10.10;42.10;;;;;;10006694;28;20050;-67
2022/02/28 18:19:25;;;;;;;12.45;4.78;;;10.00;41.70;;;;;;10006723;28;20032;-65
2022/02/28 18:24:16;;;;;;;10.43;5.75;;;9.90;42.10;;;;;;10009506;28;20076;-65
2022/02/28 18:29:08;;;;;;;8.82;4.85;;;9.80;41.90;;;;;;10008879;28;20034;-71
2022/02/28 18:33:58;;;;;;;10.23;5.03;;;9.70;42.50;;;;;;10009190;28;20061;-67
2022/02/28 18:38:50;;;;;;;8.93;4.70;;;9.60;42.50;;;;;;10007645;28;20087;-63
2022/02/28 18:43:41;;;;;;;12.65;6.15;;;9.50;42.60;;;;;;10011307;28;20370;-63
2022/02/28 18:48:36;;;;;;;12.20;5.97;;;9.50;42.60;;;;;;10008118;28;20026;-67
2022/02/28 18:53:27;;;;;;;9.52;5.38;;;9.40;42.80;;;;;;10003175;28;20057;-65
2022/02/28 18:58:18;;;;;;;11.52;5.68;;;9.30;43.20;;;;;;10006289;28;20034;-66
2022/02/28 19:03:09;;;;;;;10.70;5.90;;;9.20;43.50;;;;;;10009267;28;20092;-63
2022/02/28 19:08:03;;;;;;;11.48;5.38;;;9.10;44.00;;;;;;10004766;28;20037;-65
2022/02/28 19:12:54;;;;;;;10.45;5.43;;;9.00;44.40;;;;;;9997959;28;20459;-65
2022/02/28 19:17:45;;;;;;;11.27;5.53;;;9.00;44.40;;;;;;9996373;28;20041;-66
2022/02/28 19:22:40;;;;;;;8.55;4.85;;;8.80;44.80;;;;;;10002058;28;20512;-65
2022/02/28 19:27:31;;;;;;;15.57;5.90;;;8.70;45.30;;;;;;10011102;28;20065;-69
2022/02/28 19:32:24;;;;;;;9.93;5.80;;;8.60;45.40;;;;;;10014121;28;20046;-65
2022/02/28 19:37:16;;;;;;;10.55;6.00;;;8.60;45.40;;;;;;10002108;28;20030;-64
2022/02/28 19:42:07;;;;;;;11.10;6.32;;;8.60;45.60;;;;;;10016060;28;20033;-69
2022/02/28 19:46:58;;;;;;;12.45;7.95;;;8.50;45.50;;;;;;10013927;28;20057;-64
2022/02/28 19:51:49;;;;;;;10.82;5.88;;;8.50;45.70;;;;;;10017234;28;20149;-69
2022/02/28 19:56:39;;;;;;;11.07;5.97;;;8.50;45.60;;;;;;10014445;28;20026;-70
2022/02/28 20:01:30;;;;;;;13.35;5.88;;;8.30;45.70;;;;;;10014625;28;20026;-67
2022/02/28 20:06:21;;;;;;;9.38;5.95;;;8.30;46.10;;;;;;10012909;28;20030;-66
2022/02/28 20:11:12;;;;;;;9.30;5.57;;;8.20;46.20;;;;;;10013096;28;20641;-69
2022/02/28 20:16:03;;;;;;;11.38;5.22;;;8.10;46.90;;;;;;10010463;28;20042;-69
2022/02/28 20:20:55;;;;;;;12.27;6.63;;;8.00;46.90;;;;;;10014383;28;20109;-66
2022/02/28 20:25:46;;;;;;;13.88;6.07;;;8.00;46.90;;;;;;10014767;28;20049;-68
2022/02/28 20:30:37;;;;;;;8.48;4.93;;;7.90;47.10;;;;;;10012425;28;20036;-71
2022/02/28 20:35:28;;;;;;;11.98;6.10;;;7.90;47.30;;;;;;10009561;28;20736;-69
2022/02/28 20:40:19;;;;;;;12.57;6.72;;;7.90;47.40;;;;;;10000538;28;20032;-69
2022/02/28 20:45:10;;;;;;;14.07;6.30;;;7.90;47.60;;;;;;10012220;28;20022;-73
2022/02/28 20:50:02;;;;;;;11.88;5.32;;;7.80;47.90;;;;;;10001437;28;20042;-70
2022/02/28 20:54:52;;;;;;;12.13;5.70;;;7.60;48.50;;;;;;10014825;28;20029;-69
2022/02/28 20:59:43;;;;;;;10.48;5.68;;;7.60;48.40;;;;;;10015139;28;20377;-69
2022/02/28 21:04:35;;;;;;;13.75;6.65;;;7.60;48.20;;;;;;10010773;28;21304;-70
2022/02/28 21:09:26;;;;;;;10.60;5.28;;;7.60;48.90;;;;;;10010435;28;20042;-70
2022/02/28 21:14:17;;;;;;;13.98;6.57;;;7.60;49.00;;;;;;10011682;28;20053;-70
2022/02/28 21:19:07;;;;;;;13.52;6.82;;;7.50;49.40;;;;;;10011593;28;20117;-72
2022/02/28 21:23:58;;;;;;;12.38;7.05;;;7.40;50.00;;;;;;10013514;28;20034;-69
2022/02/28 21:28:50;;;;;;;10.90;6.20;;;7.40;49.80;;;;;;10011668;28;20041;-69
2022/02/28 21:33:42;;;;;;;10.77;6.43;;;7.30;50.00;;;;;;10013743;28;20041;-68
2022/02/28 21:38:32;;;;;;;12.38;6.80;;;7.30;49.60;;;;;;10012197;28;20030;-72
2022/02/28 21:43:24;;;;;;;11.85;6.57;;;7.30;49.60;;;;;;10008905;28;20033;-68
2022/02/28 21:48:15;;;;;;;10.38;5.97;;;7.10;49.80;;;;;;10011056;28;20056;-71
2022/02/28 21:53:06;;;;;;;15.63;6.82;;;7.10;49.80;;;;;;10007395;28;20030;-70
2022/02/28 21:58:00;;;;;;;13.60;7.00;;;7.20;49.90;;;;;;10012674;28;20509;-71
2022/02/28 22:02:50;;;;;;;13.32;7.07;;;7.00;49.70;;;;;;9996461;28;20033;-70
2022/02/28 22:07:41;;;;;;;15.27;6.72;;;7.00;50.10;;;;;;10008052;28;20076;-70
2022/02/28 22:12:32;;;;;;;14.13;6.47;;;7.00;50.30;;;;;;10004713;28;20042;-71
2022/02/28 22:17:23;;;;;;;15.40;7.72;;;6.90;50.30;;;;;;10005872;28;20081;-70
2022/02/28 22:22:14;;;;;;;15.70;7.50;;;6.80;50.40;;;;;;10005810;28;20371;-70
2022/02/28 22:27:06;;;;;;;14.73;7.65;;;6.80;50.70;;;;;;10007451;28;20034;-69
2022/02/28 22:31:58;;;;;;;13.07;6.40;;;6.80;50.80;;;;;;10006105;28;20484;-71
2022/02/28 22:36:48;;;;;;;16.38;7.45;;;6.80;51.00;;;;;;10009064;28;20029;-69
2022/02/28 22:41:39;;;;;;;10.18;5.50;;;6.90;51.10;;;;;;10008173;28;20030;-69
2022/02/28 22:46:30;;;;;;;16.85;7.65;;;6.80;51.30;;;;;;10008317;28;20143;-68
2022/02/28 22:51:21;;;;;;;11.80;6.03;;;6.80;51.70;;;;;;10005286;28;20120;-69
2022/02/28 22:56:12;;;;;;;19.60;7.38;;;6.90;51.80;;;;;;10005694;28;20120;-69
2022/02/28 23:01:15;;;;;;;12.85;6.57;;;6.70;51.60;;;;;;10008921;28;20042;-69
2022/02/28 23:06:05;;;;;;;14.80;7.13;;;6.50;52.10;;;;;;10014839;28;20383;-70
2022/02/28 23:21:14;;;;;;;21.38;8.77;;;6.30;52.60;;;;;;10012475;28;20084;-70
2022/02/28 23:26:04;;;;;;;17.60;9.20;;;6.30;52.90;;;;;;10014416;28;20084;-69
2022/02/28 23:30:56;;;;;;;13.40;7.53;;;6.20;52.90;;;;;;10014444;28;20211;-70
2022/02/28 23:35:47;;;;;;;18.73;8.80;;;6.30;53.20;;;;;;10015237;28;20532;-71
2022/02/28 23:40:38;;;;;;;16.45;8.30;;;6.10;53.20;;;;;;10009342;28;20038;-69
2022/02/28 23:45:28;;;;;;;16.67;7.50;;;6.10;53.50;;;;;;10008183;28;20105;-70
2022/02/28 23:50:19;;;;;;;13.73;7.40;;;6.10;53.60;;;;;;10016176;28;20044;-69
2022/02/28 23:55:10;;;;;;;14.35;6.57;;;6.10;53.80;;;;;;10024914;28;20076;-68
